sensor_id;sensor_type;location;lat;lon;timestamp;temperature;humidity
69944;DHT22;57257;48.408;-4.498;2023-03-31T00:00:11;13.58;70.49
69944;DHT22;57257;48.408;-4.498;2023-03-31T00:02:38;13.49;70.99
69944;DHT22;57257;48.408;-4.498;2023-03-31T00:05:07;13.45;71.27
69944;DHT22;57257;48.408;-4.498;2023-03-31T00:07:32;13.45;71.15
69944;DHT22;57257;48.408;-4.498;2023-03-31T00:10:03;13.39;71.22
69944;DHT22;57257;48.408;-4.498;2023-03-31T00:12:29;13.39;70.93
69944;DHT22;57257;48.408;-4.498;2023-03-31T00:14:55;13.34;70.96
69944;DHT22;57257;48.408;-4.498;2023-03-31T00:17:20;13.35;71.07
69944;DHT22;57257;48.408;-4.498;2023-03-31T00:19:46;13.29;71.40
69944;DHT22;57257;48.408;-4.498;2023-03-31T00:22:14;13.25;71.62
69944;DHT22;57257;48.408;-4.498;2023-03-31T00:24:43;13.22;71.98
69944;DHT22;57257;48.408;-4.498;2023-03-31T00:27:09;13.22;72.05
69944;DHT22;57257;48.408;-4.498;2023-03-31T00:29:35;13.20;71.85
69944;DHT22;57257;48.408;-4.498;2023-03-31T00:32:01;13.19;71.73
69944;DHT22;57257;48.408;-4.498;2023-03-31T00:34:27;13.20;71.79
69944;DHT22;57257;48.408;-4.498;2023-03-31T00:36:52;13.20;71.78
69944;DHT22;57257;48.408;-4.498;2023-03-31T00:39:21;13.26;71.59
69944;DHT22;57257;48.408;-4.498;2023-03-31T00:41:49;13.19;71.67
69944;DHT22;57257;48.408;-4.498;2023-03-31T00:44:20;13.25;71.59
69944;DHT22;57257;48.408;-4.498;2023-03-31T00:49:34;13.23;71.65
69944;DHT22;57257;48.408;-4.498;2023-03-31T00:52:06;13.20;71.66
69944;DHT22;57257;48.408;-4.498;2023-03-31T00:54:35;13.16;71.78
69944;DHT22;57257;48.408;-4.498;2023-03-31T00:57:01;13.19;71.69
69944;DHT22;57257;48.408;-4.498;2023-03-31T00:59:36;13.20;71.82
69944;DHT22;57257;48.408;-4.498;2023-03-31T01:02:03;13.23;71.87
69944;DHT22;57257;48.408;-4.498;2023-03-31T01:04:35;13.23;71.79
69944;DHT22;57257;48.408;-4.498;2023-03-31T01:07:21;13.16;71.63
69944;DHT22;57257;48.408;-4.498;2023-03-31T01:09:49;13.20;71.08
69944;DHT22;57257;48.408;-4.498;2023-03-31T01:12:20;13.22;71.14
69944;DHT22;57257;48.408;-4.498;2023-03-31T01:14:48;13.18;71.20
69944;DHT22;57257;48.408;-4.498;2023-03-31T01:17:14;13.18;71.35
69944;DHT22;57257;48.408;-4.498;2023-03-31T01:22:41;13.15;71.47
69944;DHT22;57257;48.408;-4.498;2023-03-31T01:26:11;13.18;71.59
69944;DHT22;57257;48.408;-4.498;2023-03-31T01:31:03;13.14;71.23
69944;DHT22;57257;48.408;-4.498;2023-03-31T01:47:47;13.14;70.44
69944;DHT22;57257;48.408;-4.498;2023-03-31T01:52:59;13.15;70.52
69944;DHT22;57257;48.408;-4.498;2023-03-31T01:55:34;13.12;70.69
69944;DHT22;57257;48.408;-4.498;2023-03-31T01:58:19;13.12;70.87
69944;DHT22;57257;48.408;-4.498;2023-03-31T02:00:54;13.12;71.06
69944;DHT22;57257;48.408;-4.498;2023-03-31T02:03:25;13.12;71.28
69944;DHT22;57257;48.408;-4.498;2023-03-31T02:05:56;13.11;71.50
69944;DHT22;57257;48.408;-4.498;2023-03-31T02:08:29;13.11;71.56
69944;DHT22;57257;48.408;-4.498;2023-03-31T02:10:57;13.11;71.51
69944;DHT22;57257;48.408;-4.498;2023-03-31T02:13:26;13.14;71.44
69944;DHT22;57257;48.408;-4.498;2023-03-31T02:15:55;13.12;71.43
69944;DHT22;57257;48.408;-4.498;2023-03-31T02:18:25;13.12;71.35
69944;DHT22;57257;48.408;-4.498;2023-03-31T02:20:55;13.16;71.43
69944;DHT22;57257;48.408;-4.498;2023-03-31T02:23:25;13.14;71.52
69944;DHT22;57257;48.408;-4.498;2023-03-31T02:26:00;13.12;71.70
69944;DHT22;57257;48.408;-4.498;2023-03-31T02:28:28;13.11;71.86
69944;DHT22;57257;48.408;-4.498;2023-03-31T02:33:26;13.07;72.21
69944;DHT22;57257;48.408;-4.498;2023-03-31T02:35:52;13.05;72.32
69944;DHT22;57257;48.408;-4.498;2023-03-31T02:38:17;13.05;72.59
69944;DHT22;57257;48.408;-4.498;2023-03-31T02:40:43;12.98;72.83
69944;DHT22;57257;48.408;-4.498;2023-03-31T02:43:09;12.98;72.95
69944;DHT22;57257;48.408;-4.498;2023-03-31T02:48:06;12.99;72.95
69944;DHT22;57257;48.408;-4.498;2023-03-31T02:50:58;13.01;72.95
69944;DHT22;57257;48.408;-4.498;2023-03-31T03:07:25;13.11;72.42
69944;DHT22;57257;48.408;-4.498;2023-03-31T03:15:24;13.15;72.13
69944;DHT22;57257;48.408;-4.498;2023-03-31T03:17:52;13.15;72.06
69944;DHT22;57257;48.408;-4.498;2023-03-31T03:20:19;13.15;71.94
69944;DHT22;57257;48.408;-4.498;2023-03-31T03:22:45;13.16;71.79
69944;DHT22;57257;48.408;-4.498;2023-03-31T03:25:13;13.19;71.68
69944;DHT22;57257;48.408;-4.498;2023-03-31T03:27:38;13.19;71.67
69944;DHT22;57257;48.408;-4.498;2023-03-31T03:30:07;13.16;71.92
69944;DHT22;57257;48.408;-4.498;2023-03-31T03:32:33;13.14;72.32
69944;DHT22;57257;48.408;-4.498;2023-03-31T03:34:59;13.11;72.63
69944;DHT22;57257;48.408;-4.498;2023-03-31T03:37:25;13.14;72.88
69944;DHT22;57257;48.408;-4.498;2023-03-31T03:39:50;13.11;72.78
69944;DHT22;57257;48.408;-4.498;2023-03-31T03:42:16;13.12;72.77
69944;DHT22;57257;48.408;-4.498;2023-03-31T03:44:41;13.11;72.68
69944;DHT22;57257;48.408;-4.498;2023-03-31T03:47:07;13.15;72.56
69944;DHT22;57257;48.408;-4.498;2023-03-31T03:49:32;13.12;72.39
69944;DHT22;57257;48.408;-4.498;2023-03-31T03:51:57;13.14;71.70
69944;DHT22;57257;48.408;-4.498;2023-03-31T03:54:23;13.15;71.76
69944;DHT22;57257;48.408;-4.498;2023-03-31T03:56:48;13.14;71.62
69944;DHT22;57257;48.408;-4.498;2023-03-31T03:59:14;13.16;71.22
69944;DHT22;57257;48.408;-4.498;2023-03-31T04:01:39;13.20;71.05
69944;DHT22;57257;48.408;-4.498;2023-03-31T04:04:05;13.18;70.81
69944;DHT22;57257;48.408;-4.498;2023-03-31T04:06:30;13.18;70.64
69944;DHT22;57257;48.408;-4.498;2023-03-31T04:08:56;13.19;70.77
69944;DHT22;57257;48.408;-4.498;2023-03-31T04:11:21;13.20;70.88
69944;DHT22;57257;48.408;-4.498;2023-03-31T04:13:47;13.22;70.75
69944;DHT22;57257;48.408;-4.498;2023-03-31T04:16:13;13.23;70.60
69944;DHT22;57257;48.408;-4.498;2023-03-31T04:18:38;13.23;70.68
69944;DHT22;57257;48.408;-4.498;2023-03-31T04:21:11;13.26;70.64
69944;DHT22;57257;48.408;-4.498;2023-03-31T04:23:40;13.26;70.46
69944;DHT22;57257;48.408;-4.498;2023-03-31T04:26:17;13.26;70.24
69944;DHT22;57257;48.408;-4.498;2023-03-31T04:28:43;13.23;70.24
69944;DHT22;57257;48.408;-4.498;2023-03-31T04:31:11;13.26;70.23
69944;DHT22;57257;48.408;-4.498;2023-03-31T04:33:41;13.22;70.41
69944;DHT22;57257;48.408;-4.498;2023-03-31T04:36:10;13.22;70.52
69944;DHT22;57257;48.408;-4.498;2023-03-31T04:38:46;13.22;70.52
69944;DHT22;57257;48.408;-4.498;2023-03-31T04:41:17;13.23;70.50
69944;DHT22;57257;48.408;-4.498;2023-03-31T04:43:43;13.25;70.70
69944;DHT22;57257;48.408;-4.498;2023-03-31T04:46:08;13.25;70.65
69944;DHT22;57257;48.408;-4.498;2023-03-31T04:48:34;13.23;70.67
69944;DHT22;57257;48.408;-4.498;2023-03-31T04:51:00;13.25;70.72
69944;DHT22;57257;48.408;-4.498;2023-03-31T04:53:25;13.23;70.55
69944;DHT22;57257;48.408;-4.498;2023-03-31T04:55:51;13.28;70.64
69944;DHT22;57257;48.408;-4.498;2023-03-31T04:58:17;13.25;70.30
69944;DHT22;57257;48.408;-4.498;2023-03-31T05:00:43;13.26;70.07
69944;DHT22;57257;48.408;-4.498;2023-03-31T05:03:08;13.28;70.00
69944;DHT22;57257;48.408;-4.498;2023-03-31T05:05:34;13.28;69.72
69944;DHT22;57257;48.408;-4.498;2023-03-31T05:08:00;13.28;69.68
69944;DHT22;57257;48.408;-4.498;2023-03-31T05:10:25;13.29;69.63
69944;DHT22;57257;48.408;-4.498;2023-03-31T05:12:51;13.26;69.49
69944;DHT22;57257;48.408;-4.498;2023-03-31T05:15:16;13.28;69.50
69944;DHT22;57257;48.408;-4.498;2023-03-31T05:17:42;13.28;69.47
69944;DHT22;57257;48.408;-4.498;2023-03-31T05:20:07;13.28;69.51
69944;DHT22;57257;48.408;-4.498;2023-03-31T05:22:37;13.25;69.54
69944;DHT22;57257;48.408;-4.498;2023-03-31T05:25:05;13.28;69.56
69944;DHT22;57257;48.408;-4.498;2023-03-31T05:27:31;13.29;69.42
69944;DHT22;57257;48.408;-4.498;2023-03-31T05:29:57;13.30;69.59
69944;DHT22;57257;48.408;-4.498;2023-03-31T05:32:23;13.28;69.50
69944;DHT22;57257;48.408;-4.498;2023-03-31T05:34:48;13.32;69.54
69944;DHT22;57257;48.408;-4.498;2023-03-31T05:37:19;13.30;69.71
69944;DHT22;57257;48.408;-4.498;2023-03-31T05:39:44;13.30;69.51
69944;DHT22;57257;48.408;-4.498;2023-03-31T05:42:10;13.34;69.42
69944;DHT22;57257;48.408;-4.498;2023-03-31T05:44:36;13.28;69.34
69944;DHT22;57257;48.408;-4.498;2023-03-31T05:47:01;13.29;69.25
69944;DHT22;57257;48.408;-4.498;2023-03-31T05:49:27;13.30;69.30
69944;DHT22;57257;48.408;-4.498;2023-03-31T05:51:52;13.36;69.38
69944;DHT22;57257;48.408;-4.498;2023-03-31T05:54:18;13.35;69.56
69944;DHT22;57257;48.408;-4.498;2023-03-31T05:56:43;13.32;69.64
69944;DHT22;57257;48.408;-4.498;2023-03-31T05:59:09;13.34;69.88
69944;DHT22;57257;48.408;-4.498;2023-03-31T06:01:34;13.34;70.08
69944;DHT22;57257;48.408;-4.498;2023-03-31T06:03:59;13.35;70.24
69944;DHT22;57257;48.408;-4.498;2023-03-31T06:06:25;13.36;70.10
69944;DHT22;57257;48.408;-4.498;2023-03-31T06:08:51;13.35;70.22
69944;DHT22;57257;48.408;-4.498;2023-03-31T06:11:19;13.35;70.27
69944;DHT22;57257;48.408;-4.498;2023-03-31T06:13:46;13.35;70.44
69944;DHT22;57257;48.408;-4.498;2023-03-31T06:16:13;13.38;70.23
69944;DHT22;57257;48.408;-4.498;2023-03-31T06:18:40;13.35;70.42
69944;DHT22;57257;48.408;-4.498;2023-03-31T06:21:06;13.38;70.46
69944;DHT22;57257;48.408;-4.498;2023-03-31T06:23:32;13.42;70.45
69944;DHT22;57257;48.408;-4.498;2023-03-31T06:26:05;13.43;70.26
69944;DHT22;57257;48.408;-4.498;2023-03-31T06:28:33;13.45;70.05
69944;DHT22;57257;48.408;-4.498;2023-03-31T06:31:10;13.45;69.92
69944;DHT22;57257;48.408;-4.498;2023-03-31T06:33:40;13.46;69.98
69944;DHT22;57257;48.408;-4.498;2023-03-31T06:36:07;13.46;69.65
69944;DHT22;57257;48.408;-4.498;2023-03-31T06:38:34;13.45;69.56
69944;DHT22;57257;48.408;-4.498;2023-03-31T06:41:01;13.46;69.53
69944;DHT22;57257;48.408;-4.498;2023-03-31T06:43:26;13.46;69.40
69944;DHT22;57257;48.408;-4.498;2023-03-31T06:45:53;13.45;69.51
69944;DHT22;57257;48.408;-4.498;2023-03-31T06:48:19;13.46;69.52
69944;DHT22;57257;48.408;-4.498;2023-03-31T06:50:45;13.46;69.65
69944;DHT22;57257;48.408;-4.498;2023-03-31T06:53:10;13.46;69.54
69944;DHT22;57257;48.408;-4.498;2023-03-31T06:55:36;13.49;69.60
69944;DHT22;57257;48.408;-4.498;2023-03-31T06:58:03;13.49;69.58
69944;DHT22;57257;48.408;-4.498;2023-03-31T07:00:28;13.50;69.81
69944;DHT22;57257;48.408;-4.498;2023-03-31T07:02:54;13.50;69.94
69944;DHT22;57257;48.408;-4.498;2023-03-31T07:05:20;13.49;69.92
69944;DHT22;57257;48.408;-4.498;2023-03-31T07:07:54;13.50;70.04
69944;DHT22;57257;48.408;-4.498;2023-03-31T07:10:20;13.50;70.03
69944;DHT22;57257;48.408;-4.498;2023-03-31T07:12:47;13.50;70.21
69944;DHT22;57257;48.408;-4.498;2023-03-31T07:15:13;13.50;70.32
69944;DHT22;57257;48.408;-4.498;2023-03-31T07:17:38;13.52;70.31
69944;DHT22;57257;48.408;-4.498;2023-03-31T07:20:10;13.52;70.42
69944;DHT22;57257;48.408;-4.498;2023-03-31T07:22:40;13.52;70.07
69944;DHT22;57257;48.408;-4.498;2023-03-31T07:25:07;13.49;69.98
69944;DHT22;57257;48.408;-4.498;2023-03-31T07:27:32;13.52;69.96
69944;DHT22;57257;48.408;-4.498;2023-03-31T07:29:58;13.50;69.88
69944;DHT22;57257;48.408;-4.498;2023-03-31T07:32:23;13.55;69.99
69944;DHT22;57257;48.408;-4.498;2023-03-31T07:34:48;13.55;70.13
69944;DHT22;57257;48.408;-4.498;2023-03-31T07:37:14;13.56;70.29
69944;DHT22;57257;48.408;-4.498;2023-03-31T07:39:40;13.60;70.08
69944;DHT22;57257;48.408;-4.498;2023-03-31T07:42:05;13.67;70.14
69944;DHT22;57257;48.408;-4.498;2023-03-31T07:44:34;13.76;69.93
69944;DHT22;57257;48.408;-4.498;2023-03-31T07:47:00;13.80;69.32
69944;DHT22;57257;48.408;-4.498;2023-03-31T07:49:29;13.83;69.04
69944;DHT22;57257;48.408;-4.498;2023-03-31T07:51:55;13.84;68.74
69944;DHT22;57257;48.408;-4.498;2023-03-31T07:54:21;13.87;68.40
69944;DHT22;57257;48.408;-4.498;2023-03-31T07:56:47;13.99;68.29
69944;DHT22;57257;48.408;-4.498;2023-03-31T07:59:12;14.00;67.23
69944;DHT22;57257;48.408;-4.498;2023-03-31T08:01:38;14.10;67.39
69944;DHT22;57257;48.408;-4.498;2023-03-31T08:04:03;14.17;67.41
69944;DHT22;57257;48.408;-4.498;2023-03-31T08:06:29;14.20;67.03
69944;DHT22;57257;48.408;-4.498;2023-03-31T08:08:55;14.18;66.89
69944;DHT22;57257;48.408;-4.498;2023-03-31T08:11:22;14.18;66.96
69944;DHT22;57257;48.408;-4.498;2023-03-31T08:13:48;14.12;67.17
69944;DHT22;57257;48.408;-4.498;2023-03-31T08:16:14;14.13;67.61
69944;DHT22;57257;48.408;-4.498;2023-03-31T08:18:39;14.07;68.08
69944;DHT22;57257;48.408;-4.498;2023-03-31T08:21:06;14.12;68.25
69944;DHT22;57257;48.408;-4.498;2023-03-31T08:23:31;14.10;68.60
69944;DHT22;57257;48.408;-4.498;2023-03-31T08:26:08;14.07;68.85
69944;DHT22;57257;48.408;-4.498;2023-03-31T08:28:33;14.10;69.06
69944;DHT22;57257;48.408;-4.498;2023-03-31T08:31:04;14.12;69.21
69944;DHT22;57257;48.408;-4.498;2023-03-31T08:33:30;14.10;69.23
69944;DHT22;57257;48.408;-4.498;2023-03-31T08:35:55;14.09;69.04
69944;DHT22;57257;48.408;-4.498;2023-03-31T08:38:21;14.12;69.09
69944;DHT22;57257;48.408;-4.498;2023-03-31T08:40:46;14.23;69.09
69944;DHT22;57257;48.408;-4.498;2023-03-31T08:43:18;14.27;68.42
69944;DHT22;57257;48.408;-4.498;2023-03-31T08:45:47;14.27;68.39
69944;DHT22;57257;48.408;-4.498;2023-03-31T08:48:34;14.25;68.48
69944;DHT22;57257;48.408;-4.498;2023-03-31T08:51:11;14.27;68.69
69944;DHT22;57257;48.408;-4.498;2023-03-31T08:53:45;14.30;68.34
69944;DHT22;57257;48.408;-4.498;2023-03-31T08:56:16;14.24;67.92
69944;DHT22;57257;48.408;-4.498;2023-03-31T08:58:45;14.21;67.66
69944;DHT22;57257;48.408;-4.498;2023-03-31T09:10:09;14.37;68.19
69944;DHT22;57257;48.408;-4.498;2023-03-31T09:13:00;14.37;68.50
69944;DHT22;57257;48.408;-4.498;2023-03-31T09:18:05;14.28;69.15
69944;DHT22;57257;48.408;-4.498;2023-03-31T09:20:37;14.37;68.97
69944;DHT22;57257;48.408;-4.498;2023-03-31T09:25:47;14.55;68.75
69944;DHT22;57257;48.408;-4.498;2023-03-31T09:28:20;14.68;68.66
69944;DHT22;57257;48.408;-4.498;2023-03-31T09:30:47;14.79;68.98
69944;DHT22;57257;48.408;-4.498;2023-03-31T09:33:27;14.91;68.36
69944;DHT22;57257;48.408;-4.498;2023-03-31T09:35:57;14.91;67.96
69944;DHT22;57257;48.408;-4.498;2023-03-31T09:38:23;14.95;67.57
69944;DHT22;57257;48.408;-4.498;2023-03-31T09:40:48;15.01;67.53
69944;DHT22;57257;48.408;-4.498;2023-03-31T09:43:34;14.98;67.39
69944;DHT22;57257;48.408;-4.498;2023-03-31T09:46:00;14.98;66.90
69944;DHT22;57257;48.408;-4.498;2023-03-31T09:48:29;14.99;67.48
69944;DHT22;57257;48.408;-4.498;2023-03-31T09:51:04;15.15;67.07
69944;DHT22;57257;48.408;-4.498;2023-03-31T09:56:10;15.39;66.68
69944;DHT22;57257;48.408;-4.498;2023-03-31T09:58:44;15.52;66.62
69944;DHT22;57257;48.408;-4.498;2023-03-31T10:01:11;15.70;65.82
69944;DHT22;57257;48.408;-4.498;2023-03-31T10:04:06;15.90;65.35
69944;DHT22;57257;48.408;-4.498;2023-03-31T10:06:39;15.93;64.89
69944;DHT22;57257;48.408;-4.498;2023-03-31T10:09:09;15.94;64.43
69944;DHT22;57257;48.408;-4.498;2023-03-31T10:11:36;15.86;64.42
69944;DHT22;57257;48.408;-4.498;2023-03-31T10:14:10;15.84;64.79
69944;DHT22;57257;48.408;-4.498;2023-03-31T10:16:48;15.89;64.42
69944;DHT22;57257;48.408;-4.498;2023-03-31T10:19:23;16.00;64.48
69944;DHT22;57257;48.408;-4.498;2023-03-31T10:24:41;16.10;64.51
69944;DHT22;57257;48.408;-4.498;2023-03-31T10:27:26;16.07;63.97
69944;DHT22;57257;48.408;-4.498;2023-03-31T10:29:53;16.04;64.18
69944;DHT22;57257;48.408;-4.498;2023-03-31T10:32:28;16.04;64.49
69944;DHT22;57257;48.408;-4.498;2023-03-31T10:34:58;16.10;64.29
69944;DHT22;57257;48.408;-4.498;2023-03-31T10:37:29;16.13;63.27
69944;DHT22;57257;48.408;-4.498;2023-03-31T10:40:03;16.18;63.16
69944;DHT22;57257;48.408;-4.498;2023-03-31T10:42:31;16.34;63.06
69944;DHT22;57257;48.408;-4.498;2023-03-31T10:45:26;16.24;62.26
69944;DHT22;57257;48.408;-4.498;2023-03-31T10:47:54;16.22;62.59
69944;DHT22;57257;48.408;-4.498;2023-03-31T10:50:30;16.20;62.35
69944;DHT22;57257;48.408;-4.498;2023-03-31T10:53:10;16.03;62.63
69944;DHT22;57257;48.408;-4.498;2023-03-31T10:58:53;15.79;63.44
69944;DHT22;57257;48.408;-4.498;2023-03-31T11:06:32;15.44;65.06
69944;DHT22;57257;48.408;-4.498;2023-03-31T11:28:20;15.69;67.01
69944;DHT22;57257;48.408;-4.498;2023-03-31T11:40:16;16.18;64.64
69944;DHT22;57257;48.408;-4.498;2023-03-31T11:46:08;16.16;65.54
69944;DHT22;57257;48.408;-4.498;2023-03-31T11:48:50;16.21;64.37
69944;DHT22;57257;48.408;-4.498;2023-03-31T11:54:16;16.48;65.09
69944;DHT22;57257;48.408;-4.498;2023-03-31T11:56:42;16.69;64.66
69944;DHT22;57257;48.408;-4.498;2023-03-31T11:59:14;16.81;63.87
69944;DHT22;57257;48.408;-4.498;2023-03-31T12:04:35;16.73;62.72
69944;DHT22;57257;48.408;-4.498;2023-03-31T12:09:53;16.51;62.12
69944;DHT22;57257;48.408;-4.498;2023-03-31T12:12:26;16.51;62.54
69944;DHT22;57257;48.408;-4.498;2023-03-31T12:15:23;16.57;62.49
69944;DHT22;57257;48.408;-4.498;2023-03-31T12:17:59;16.62;62.49
69944;DHT22;57257;48.408;-4.498;2023-03-31T12:20:32;16.72;62.73
69944;DHT22;57257;48.408;-4.498;2023-03-31T12:23:00;16.79;62.40
69944;DHT22;57257;48.408;-4.498;2023-03-31T12:25:41;16.81;62.02
69944;DHT22;57257;48.408;-4.498;2023-03-31T12:28:09;16.86;61.90
69944;DHT22;57257;48.408;-4.498;2023-03-31T12:30:37;16.91;61.64
69944;DHT22;57257;48.408;-4.498;2023-03-31T12:33:29;16.96;61.43
69944;DHT22;57257;48.408;-4.498;2023-03-31T12:36:21;16.98;60.84
69944;DHT22;57257;48.408;-4.498;2023-03-31T12:41:44;17.08;61.02
69944;DHT22;57257;48.408;-4.498;2023-03-31T12:55:48;17.37;60.43
69944;DHT22;57257;48.408;-4.498;2023-03-31T13:01:19;17.39;59.64
69944;DHT22;57257;48.408;-4.498;2023-03-31T13:08:56;17.16;59.70
69944;DHT22;57257;48.408;-4.498;2023-03-31T13:14:16;17.34;59.65
69944;DHT22;57257;48.408;-4.498;2023-03-31T13:16:44;17.46;59.73
69944;DHT22;57257;48.408;-4.498;2023-03-31T13:19:33;17.63;59.08
69944;DHT22;57257;48.408;-4.498;2023-03-31T13:22:01;17.70;59.10
69944;DHT22;57257;48.408;-4.498;2023-03-31T13:24:29;17.74;59.00
69944;DHT22;57257;48.408;-4.498;2023-03-31T13:27:28;17.77;58.70
69944;DHT22;57257;48.408;-4.498;2023-03-31T13:29:54;17.69;58.66
69944;DHT22;57257;48.408;-4.498;2023-03-31T13:32:24;17.74;58.18
69944;DHT22;57257;48.408;-4.498;2023-03-31T13:51:58;17.66;56.97
69944;DHT22;57257;48.408;-4.498;2023-03-31T13:57:16;17.47;59.24
69944;DHT22;57257;48.408;-4.498;2023-03-31T14:05:36;17.57;58.79
69944;DHT22;57257;48.408;-4.498;2023-03-31T14:08:10;17.54;58.39
69944;DHT22;57257;48.408;-4.498;2023-03-31T14:10:39;17.62;58.73
69944;DHT22;57257;48.408;-4.498;2023-03-31T14:15:39;17.76;58.11
69944;DHT22;57257;48.408;-4.498;2023-03-31T14:18:06;17.96;58.06
69944;DHT22;57257;48.408;-4.498;2023-03-31T14:20:48;17.97;56.48
69944;DHT22;57257;48.408;-4.498;2023-03-31T14:23:26;17.98;56.82
69944;DHT22;57257;48.408;-4.498;2023-03-31T14:26:06;18.07;57.11
69944;DHT22;57257;48.408;-4.498;2023-03-31T14:31:25;18.37;56.49
69944;DHT22;57257;48.408;-4.498;2023-03-31T14:39:20;18.35;56.18
69944;DHT22;57257;48.408;-4.498;2023-03-31T14:41:54;18.35;55.85
69944;DHT22;57257;48.408;-4.498;2023-03-31T14:44:21;18.32;56.19
69944;DHT22;57257;48.408;-4.498;2023-03-31T14:46:47;18.37;55.92
69944;DHT22;57257;48.408;-4.498;2023-03-31T14:49:28;18.24;56.17
69944;DHT22;57257;48.408;-4.498;2023-03-31T14:51:59;18.12;55.64
69944;DHT22;57257;48.408;-4.498;2023-03-31T14:54:25;18.07;56.33
69944;DHT22;57257;48.408;-4.498;2023-03-31T14:56:56;18.14;56.49
69944;DHT22;57257;48.408;-4.498;2023-03-31T14:59:33;18.24;55.15
69944;DHT22;57257;48.408;-4.498;2023-03-31T15:02:01;18.11;55.58
69944;DHT22;57257;48.408;-4.498;2023-03-31T15:04:29;18.05;55.86
69944;DHT22;57257;48.408;-4.498;2023-03-31T15:06:58;18.28;55.63
69944;DHT22;57257;48.408;-4.498;2023-03-31T15:09:28;18.38;55.47
69944;DHT22;57257;48.408;-4.498;2023-03-31T15:12:00;18.41;55.97
69944;DHT22;57257;48.408;-4.498;2023-03-31T15:14:43;18.92;55.55
69944;DHT22;57257;48.408;-4.498;2023-03-31T15:17:19;19.06;54.50
69944;DHT22;57257;48.408;-4.498;2023-03-31T15:19:45;18.82;54.14
69944;DHT22;57257;48.408;-4.498;2023-03-31T15:22:14;18.95;54.75
69944;DHT22;57257;48.408;-4.498;2023-03-31T15:24:40;19.07;53.02
69944;DHT22;57257;48.408;-4.498;2023-03-31T15:29:54;18.88;54.13
69944;DHT22;57257;48.408;-4.498;2023-03-31T15:32:27;19.03;52.85
69944;DHT22;57257;48.408;-4.498;2023-03-31T15:34:54;19.06;53.80
69944;DHT22;57257;48.408;-4.498;2023-03-31T15:37:23;19.68;53.81
69944;DHT22;57257;48.408;-4.498;2023-03-31T15:39:54;20.17;52.60
69944;DHT22;57257;48.408;-4.498;2023-03-31T15:42:20;20.22;51.60
69944;DHT22;57257;48.408;-4.498;2023-03-31T15:45:20;19.58;52.45
69944;DHT22;57257;48.408;-4.498;2023-03-31T15:47:49;18.92;53.70
69944;DHT22;57257;48.408;-4.498;2023-03-31T15:50:15;18.44;54.82
69944;DHT22;57257;48.408;-4.498;2023-03-31T15:52:48;18.11;55.93
69944;DHT22;57257;48.408;-4.498;2023-03-31T15:57:56;18.09;58.91
69944;DHT22;57257;48.408;-4.498;2023-03-31T16:03:16;20.46;54.66
69944;DHT22;57257;48.408;-4.498;2023-03-31T16:05:54;20.69;53.20
69944;DHT22;57257;48.408;-4.498;2023-03-31T16:08:25;20.22;53.17
69944;DHT22;57257;48.408;-4.498;2023-03-31T16:11:00;19.71;53.57
69944;DHT22;57257;48.408;-4.498;2023-03-31T16:13:29;19.24;54.99
69944;DHT22;57257;48.408;-4.498;2023-03-31T16:15:57;19.13;55.72
69944;DHT22;57257;48.408;-4.498;2023-03-31T16:18:31;19.06;55.99
69944;DHT22;57257;48.408;-4.498;2023-03-31T16:21:02;18.79;55.48
69944;DHT22;57257;48.408;-4.498;2023-03-31T16:23:30;18.45;56.37
69944;DHT22;57257;48.408;-4.498;2023-03-31T16:25:58;18.24;56.85
69944;DHT22;57257;48.408;-4.498;2023-03-31T16:28:44;18.14;57.21
69944;DHT22;57257;48.408;-4.498;2023-03-31T16:31:34;17.94;57.24
69944;DHT22;57257;48.408;-4.498;2023-03-31T16:34:02;17.70;57.82
69944;DHT22;57257;48.408;-4.498;2023-03-31T16:36:29;17.54;58.46
69944;DHT22;57257;48.408;-4.498;2023-03-31T16:38:55;17.49;58.81
69944;DHT22;57257;48.408;-4.498;2023-03-31T16:41:23;17.47;58.89
69944;DHT22;57257;48.408;-4.498;2023-03-31T16:43:49;17.33;59.11
69944;DHT22;57257;48.408;-4.498;2023-03-31T16:46:18;17.29;59.45
69944;DHT22;57257;48.408;-4.498;2023-03-31T16:48:44;17.12;59.51
69944;DHT22;57257;48.408;-4.498;2023-03-31T16:51:09;16.89;59.85
69944;DHT22;57257;48.408;-4.498;2023-03-31T16:53:35;16.76;60.29
69944;DHT22;57257;48.408;-4.498;2023-03-31T16:56:02;16.68;60.79
69944;DHT22;57257;48.408;-4.498;2023-03-31T16:58:28;16.59;61.21
69944;DHT22;57257;48.408;-4.498;2023-03-31T17:00:54;16.62;61.38
69944;DHT22;57257;48.408;-4.498;2023-03-31T17:03:20;16.68;61.38
69944;DHT22;57257;48.408;-4.498;2023-03-31T17:05:48;16.76;61.29
69944;DHT22;57257;48.408;-4.498;2023-03-31T17:08:18;16.76;61.25
69944;DHT22;57257;48.408;-4.498;2023-03-31T17:10:52;16.69;61.19
69944;DHT22;57257;48.408;-4.498;2023-03-31T17:13:18;16.62;61.34
69944;DHT22;57257;48.408;-4.498;2023-03-31T17:15:44;16.52;61.38
69944;DHT22;57257;48.408;-4.498;2023-03-31T17:18:09;16.42;61.70
69944;DHT22;57257;48.408;-4.498;2023-03-31T17:20:35;16.37;61.87
69944;DHT22;57257;48.408;-4.498;2023-03-31T17:23:00;16.29;62.02
69944;DHT22;57257;48.408;-4.498;2023-03-31T17:25:26;16.21;62.09
69944;DHT22;57257;48.408;-4.498;2023-03-31T17:27:52;16.11;62.39
69944;DHT22;57257;48.408;-4.498;2023-03-31T17:30:17;15.94;62.81
69944;DHT22;57257;48.408;-4.498;2023-03-31T17:32:43;15.83;63.61
69944;DHT22;57257;48.408;-4.498;2023-03-31T17:35:08;15.77;64.32
69944;DHT22;57257;48.408;-4.498;2023-03-31T17:37:36;15.74;65.00
69944;DHT22;57257;48.408;-4.498;2023-03-31T17:40:02;15.63;65.59
69944;DHT22;57257;48.408;-4.498;2023-03-31T17:42:29;15.56;65.67
69944;DHT22;57257;48.408;-4.498;2023-03-31T17:44:55;15.43;65.79
69944;DHT22;57257;48.408;-4.498;2023-03-31T17:47:20;15.36;65.97
69944;DHT22;57257;48.408;-4.498;2023-03-31T17:49:46;15.25;66.09
69944;DHT22;57257;48.408;-4.498;2023-03-31T17:52:11;15.15;66.43
69944;DHT22;57257;48.408;-4.498;2023-03-31T17:54:38;15.13;66.54
69944;DHT22;57257;48.408;-4.498;2023-03-31T17:57:03;15.02;66.66
69944;DHT22;57257;48.408;-4.498;2023-03-31T17:59:29;14.93;66.87
69944;DHT22;57257;48.408;-4.498;2023-03-31T18:01:54;14.91;67.14
69944;DHT22;57257;48.408;-4.498;2023-03-31T18:04:20;14.91;67.02
69944;DHT22;57257;48.408;-4.498;2023-03-31T18:06:46;14.85;67.32
69944;DHT22;57257;48.408;-4.498;2023-03-31T18:09:13;14.78;67.50
69944;DHT22;57257;48.408;-4.498;2023-03-31T18:11:39;14.74;67.66
69944;DHT22;57257;48.408;-4.498;2023-03-31T18:14:06;14.68;67.72
69944;DHT22;57257;48.408;-4.498;2023-03-31T18:16:33;14.63;67.86
69944;DHT22;57257;48.408;-4.498;2023-03-31T18:19:00;14.58;68.13
69944;DHT22;57257;48.408;-4.498;2023-03-31T18:21:26;14.58;68.21
69944;DHT22;57257;48.408;-4.498;2023-03-31T18:23:51;14.52;68.33
69944;DHT22;57257;48.408;-4.498;2023-03-31T18:26:20;14.45;68.50
69944;DHT22;57257;48.408;-4.498;2023-03-31T18:28:46;14.38;68.70
69944;DHT22;57257;48.408;-4.498;2023-03-31T18:31:11;14.31;68.91
69944;DHT22;57257;48.408;-4.498;2023-03-31T18:33:38;14.24;68.97
69944;DHT22;57257;48.408;-4.498;2023-03-31T18:36:04;14.13;69.11